sensor_id;sensor_type;location;lat;lon;timestamp;P1;durP1;ratioP1;P2;durP2;ratioP2
13374;SDS011;6756;51.354;15.754;2023-05-23T00:03:15;11.70;;;5.13;;
13374;SDS011;6756;51.354;15.754;2023-05-23T00:07:16;5.87;;;5.27;;
13374;SDS011;6756;51.354;15.754;2023-05-23T00:11:17;5.87;;;4.53;;
13374;SDS011;6756;51.354;15.754;2023-05-23T00:15:19;7.57;;;5.10;;
13374;SDS011;6756;51.354;15.754;2023-05-23T00:19:21;6.37;;;5.03;;
13374;SDS011;6756;51.354;15.754;2023-05-23T00:23:22;5.67;;;4.37;;
13374;SDS011;6756;51.354;15.754;2023-05-23T00:27:24;6.40;;;5.07;;
13374;SDS011;6756;51.354;15.754;2023-05-23T00:31:25;5.53;;;4.60;;
13374;SDS011;6756;51.354;15.754;2023-05-23T00:35:26;7.03;;;4.83;;
13374;SDS011;6756;51.354;15.754;2023-05-23T00:39:27;5.57;;;4.43;;
13374;SDS011;6756;51.354;15.754;2023-05-23T00:43:28;6.70;;;5.17;;
13374;SDS011;6756;51.354;15.754;2023-05-23T00:47:30;6.90;;;4.60;;
13374;SDS011;6756;51.354;15.754;2023-05-23T00:51:31;6.70;;;4.77;;
13374;SDS011;6756;51.354;15.754;2023-05-23T00:55:33;8.50;;;5.47;;
13374;SDS011;6756;51.354;15.754;2023-05-23T00:59:34;7.40;;;5.50;;
13374;SDS011;6756;51.354;15.754;2023-05-23T01:03:36;7.47;;;5.07;;
13374;SDS011;6756;51.354;15.754;2023-05-23T01:07:38;6.57;;;5.13;;
13374;SDS011;6756;51.354;15.754;2023-05-23T01:15:54;6.33;;;4.50;;
13374;SDS011;6756;51.354;15.754;2023-05-23T01:20:15;5.97;;;4.97;;
13374;SDS011;6756;51.354;15.754;2023-05-23T01:24:46;7.50;;;5.23;;
13374;SDS011;6756;51.354;15.754;2023-05-23T01:29:10;7.27;;;5.20;;
13374;SDS011;6756;51.354;15.754;2023-05-23T01:33:14;6.80;;;5.30;;
13374;SDS011;6756;51.354;15.754;2023-05-23T01:37:17;7.07;;;5.23;;
13374;SDS011;6756;51.354;15.754;2023-05-23T01:41:18;6.43;;;5.23;;
13374;SDS011;6756;51.354;15.754;2023-05-23T01:45:19;6.93;;;5.23;;
13374;SDS011;6756;51.354;15.754;2023-05-23T01:49:20;8.00;;;6.03;;
13374;SDS011;6756;51.354;15.754;2023-05-23T01:53:23;8.37;;;5.13;;
13374;SDS011;6756;51.354;15.754;2023-05-23T01:57:25;9.20;;;5.77;;
13374;SDS011;6756;51.354;15.754;2023-05-23T02:01:29;7.53;;;5.57;;
13374;SDS011;6756;51.354;15.754;2023-05-23T02:05:30;9.30;;;6.70;;
13374;SDS011;6756;51.354;15.754;2023-05-23T02:09:31;9.13;;;6.20;;
13374;SDS011;6756;51.354;15.754;2023-05-23T02:13:32;8.97;;;6.10;;
13374;SDS011;6756;51.354;15.754;2023-05-23T02:17:34;8.70;;;6.17;;
13374;SDS011;6756;51.354;15.754;2023-05-23T02:21:34;6.57;;;5.57;;
13374;SDS011;6756;51.354;15.754;2023-05-23T02:25:35;8.10;;;5.73;;
13374;SDS011;6756;51.354;15.754;2023-05-23T02:29:36;6.37;;;5.37;;
13374;SDS011;6756;51.354;15.754;2023-05-23T02:33:39;9.63;;;5.50;;
13374;SDS011;6756;51.354;15.754;2023-05-23T02:37:39;6.40;;;5.67;;
13374;SDS011;6756;51.354;15.754;2023-05-23T02:41:40;7.63;;;5.50;;
13374;SDS011;6756;51.354;15.754;2023-05-23T02:45:41;8.30;;;6.13;;
13374;SDS011;6756;51.354;15.754;2023-05-23T02:49:42;7.63;;;5.80;;
13374;SDS011;6756;51.354;15.754;2023-05-23T02:53:44;8.33;;;6.10;;
13374;SDS011;6756;51.354;15.754;2023-05-23T02:57:45;8.07;;;5.80;;
13374;SDS011;6756;51.354;15.754;2023-05-23T03:01:45;7.47;;;5.83;;
13374;SDS011;6756;51.354;15.754;2023-05-23T03:05:46;8.83;;;7.47;;
13374;SDS011;6756;51.354;15.754;2023-05-23T03:09:48;10.57;;;6.70;;
13374;SDS011;6756;51.354;15.754;2023-05-23T03:13:48;7.50;;;6.40;;
13374;SDS011;6756;51.354;15.754;2023-05-23T03:17:49;7.77;;;6.10;;
13374;SDS011;6756;51.354;15.754;2023-05-23T03:21:51;7.33;;;6.37;;
13374;SDS011;6756;51.354;15.754;2023-05-23T03:25:52;6.13;;;4.93;;
13374;SDS011;6756;51.354;15.754;2023-05-23T03:29:53;8.23;;;5.63;;
13374;SDS011;6756;51.354;15.754;2023-05-23T03:33:53;6.80;;;5.60;;
13374;SDS011;6756;51.354;15.754;2023-05-23T03:37:55;8.03;;;5.47;;
13374;SDS011;6756;51.354;15.754;2023-05-23T03:41:58;8.90;;;6.73;;
13374;SDS011;6756;51.354;15.754;2023-05-23T03:45:59;7.77;;;6.07;;
13374;SDS011;6756;51.354;15.754;2023-05-23T03:50:00;6.60;;;5.43;;
13374;SDS011;6756;51.354;15.754;2023-05-23T03:54:02;8.70;;;5.90;;
13374;SDS011;6756;51.354;15.754;2023-05-23T03:58:03;6.67;;;5.63;;
13374;SDS011;6756;51.354;15.754;2023-05-23T04:02:04;9.53;;;6.27;;
13374;SDS011;6756;51.354;15.754;2023-05-23T04:06:08;6.83;;;5.70;;
13374;SDS011;6756;51.354;15.754;2023-05-23T04:10:10;8.43;;;5.93;;
13374;SDS011;6756;51.354;15.754;2023-05-23T04:14:17;7.83;;;5.87;;
13374;SDS011;6756;51.354;15.754;2023-05-23T04:18:21;7.00;;;5.00;;
13374;SDS011;6756;51.354;15.754;2023-05-23T04:22:25;5.67;;;5.03;;
13374;SDS011;6756;51.354;15.754;2023-05-23T04:26:26;9.03;;;5.43;;
13374;SDS011;6756;51.354;15.754;2023-05-23T04:30:28;7.10;;;5.87;;
13374;SDS011;6756;51.354;15.754;2023-05-23T04:34:29;7.73;;;6.47;;
13374;SDS011;6756;51.354;15.754;2023-05-23T04:38:35;13.23;;;6.93;;
13374;SDS011;6756;51.354;15.754;2023-05-23T04:42:37;9.53;;;7.27;;
13374;SDS011;6756;51.354;15.754;2023-05-23T04:46:41;9.13;;;6.40;;
13374;SDS011;6756;51.354;15.754;2023-05-23T04:50:47;9.73;;;6.33;;
13374;SDS011;6756;51.354;15.754;2023-05-23T04:54:50;10.00;;;6.93;;
13374;SDS011;6756;51.354;15.754;2023-05-23T04:58:53;12.47;;;7.73;;
13374;SDS011;6756;51.354;15.754;2023-05-23T05:02:58;13.47;;;8.37;;
13374;SDS011;6756;51.354;15.754;2023-05-23T05:06:59;10.30;;;7.57;;
13374;SDS011;6756;51.354;15.754;2023-05-23T05:11:03;12.33;;;8.23;;
13374;SDS011;6756;51.354;15.754;2023-05-23T05:15:04;10.03;;;8.10;;
13374;SDS011;6756;51.354;15.754;2023-05-23T05:19:06;10.63;;;7.40;;
13374;SDS011;6756;51.354;15.754;2023-05-23T05:23:07;14.47;;;8.03;;
13374;SDS011;6756;51.354;15.754;2023-05-23T05:27:10;12.40;;;7.10;;
13374;SDS011;6756;51.354;15.754;2023-05-23T05:31:12;10.23;;;6.70;;
13374;SDS011;6756;51.354;15.754;2023-05-23T05:35:14;7.03;;;5.50;;
13374;SDS011;6756;51.354;15.754;2023-05-23T05:39:17;15.27;;;6.80;;
13374;SDS011;6756;51.354;15.754;2023-05-23T05:43:20;8.00;;;6.30;;
13374;SDS011;6756;51.354;15.754;2023-05-23T05:47:21;8.03;;;6.37;;
13374;SDS011;6756;51.354;15.754;2023-05-23T05:51:22;10.70;;;6.13;;
13374;SDS011;6756;51.354;15.754;2023-05-23T05:55:23;9.00;;;7.07;;
13374;SDS011;6756;51.354;15.754;2023-05-23T05:59:24;7.57;;;6.27;;
13374;SDS011;6756;51.354;15.754;2023-05-23T06:03:31;10.63;;;6.87;;
13374;SDS011;6756;51.354;15.754;2023-05-23T06:07:33;8.93;;;6.03;;
13374;SDS011;6756;51.354;15.754;2023-05-23T06:11:35;8.37;;;6.30;;
13374;SDS011;6756;51.354;15.754;2023-05-23T06:15:40;10.47;;;6.03;;
13374;SDS011;6756;51.354;15.754;2023-05-23T06:19:41;13.43;;;7.37;;
13374;SDS011;6756;51.354;15.754;2023-05-23T06:23:43;9.87;;;7.23;;
13374;SDS011;6756;51.354;15.754;2023-05-23T06:27:44;10.03;;;6.93;;
13374;SDS011;6756;51.354;15.754;2023-05-23T06:31:46;9.03;;;6.30;;
13374;SDS011;6756;51.354;15.754;2023-05-23T06:35:48;9.13;;;6.93;;
13374;SDS011;6756;51.354;15.754;2023-05-23T06:39:52;9.03;;;6.43;;
13374;SDS011;6756;51.354;15.754;2023-05-23T06:43:53;12.77;;;8.20;;
13374;SDS011;6756;51.354;15.754;2023-05-23T06:47:54;11.27;;;8.03;;
13374;SDS011;6756;51.354;15.754;2023-05-23T06:51:55;10.90;;;8.53;;
13374;SDS011;6756;51.354;15.754;2023-05-23T06:55:56;11.03;;;9.03;;
13374;SDS011;6756;51.354;15.754;2023-05-23T06:59:59;11.83;;;8.77;;
13374;SDS011;6756;51.354;15.754;2023-05-23T07:04:03;12.03;;;9.20;;
13374;SDS011;6756;51.354;15.754;2023-05-23T07:08:03;13.13;;;8.77;;
13374;SDS011;6756;51.354;15.754;2023-05-23T07:12:05;15.27;;;8.70;;
13374;SDS011;6756;51.354;15.754;2023-05-23T07:16:06;10.43;;;7.73;;
13374;SDS011;6756;51.354;15.754;2023-05-23T07:20:07;8.47;;;6.67;;
13374;SDS011;6756;51.354;15.754;2023-05-23T07:24:09;8.77;;;7.37;;
13374;SDS011;6756;51.354;15.754;2023-05-23T07:28:10;9.93;;;7.17;;
13374;SDS011;6756;51.354;15.754;2023-05-23T07:32:11;9.37;;;6.93;;
13374;SDS011;6756;51.354;15.754;2023-05-23T07:36:12;8.77;;;7.60;;
13374;SDS011;6756;51.354;15.754;2023-05-23T07:40:13;9.07;;;7.93;;
13374;SDS011;6756;51.354;15.754;2023-05-23T07:44:15;6.97;;;6.37;;
13374;SDS011;6756;51.354;15.754;2023-05-23T07:48:18;8.57;;;6.50;;
13374;SDS011;6756;51.354;15.754;2023-05-23T07:52:19;9.07;;;7.37;;
13374;SDS011;6756;51.354;15.754;2023-05-23T07:56:20;10.73;;;7.80;;
13374;SDS011;6756;51.354;15.754;2023-05-23T08:00:22;9.80;;;8.00;;
13374;SDS011;6756;51.354;15.754;2023-05-23T08:04:23;10.03;;;8.83;;
13374;SDS011;6756;51.354;15.754;2023-05-23T08:08:24;12.03;;;8.27;;
13374;SDS011;6756;51.354;15.754;2023-05-23T08:12:28;11.37;;;9.10;;
13374;SDS011;6756;51.354;15.754;2023-05-23T08:16:29;8.23;;;6.47;;
13374;SDS011;6756;51.354;15.754;2023-05-23T08:20:30;7.33;;;6.33;;
13374;SDS011;6756;51.354;15.754;2023-05-23T08:24:31;7.70;;;6.30;;
13374;SDS011;6756;51.354;15.754;2023-05-23T08:28:33;9.33;;;6.70;;
13374;SDS011;6756;51.354;15.754;2023-05-23T08:32:34;7.53;;;5.50;;
13374;SDS011;6756;51.354;15.754;2023-05-23T08:36:35;8.17;;;4.90;;
13374;SDS011;6756;51.354;15.754;2023-05-23T08:40:42;9.23;;;5.07;;
13374;SDS011;6756;51.354;15.754;2023-05-23T08:44:50;7.67;;;5.00;;
13374;SDS011;6756;51.354;15.754;2023-05-23T08:48:54;7.27;;;4.87;;
13374;SDS011;6756;51.354;15.754;2023-05-23T08:53:01;5.10;;;4.03;;
13374;SDS011;6756;51.354;15.754;2023-05-23T08:57:03;6.00;;;5.07;;
13374;SDS011;6756;51.354;15.754;2023-05-23T09:01:04;6.27;;;5.60;;
13374;SDS011;6756;51.354;15.754;2023-05-23T09:05:06;5.33;;;4.70;;
13374;SDS011;6756;51.354;15.754;2023-05-23T09:09:08;10.17;;;5.57;;
13374;SDS011;6756;51.354;15.754;2023-05-23T09:13:09;6.57;;;5.23;;
13374;SDS011;6756;51.354;15.754;2023-05-23T09:17:14;8.17;;;5.50;;
13374;SDS011;6756;51.354;15.754;2023-05-23T09:21:17;6.20;;;5.43;;
13374;SDS011;6756;51.354;15.754;2023-05-23T09:25:18;8.07;;;5.50;;
13374;SDS011;6756;51.354;15.754;2023-05-23T09:29:19;6.30;;;5.43;;
13374;SDS011;6756;51.354;15.754;2023-05-23T09:33:20;6.20;;;5.10;;
13374;SDS011;6756;51.354;15.754;2023-05-23T09:37:24;6.13;;;5.13;;
13374;SDS011;6756;51.354;15.754;2023-05-23T09:42:00;6.80;;;5.30;;
13374;SDS011;6756;51.354;15.754;2023-05-23T09:46:11;5.73;;;4.47;;
13374;SDS011;6756;51.354;15.754;2023-05-23T09:50:12;6.33;;;4.30;;
13374;SDS011;6756;51.354;15.754;2023-05-23T09:54:13;8.13;;;5.20;;
13374;SDS011;6756;51.354;15.754;2023-05-23T09:58:14;5.73;;;5.00;;
13374;SDS011;6756;51.354;15.754;2023-05-23T10:02:29;8.13;;;5.07;;
13374;SDS011;6756;51.354;15.754;2023-05-23T10:14:56;5.87;;;5.03;;
13374;SDS011;6756;51.354;15.754;2023-05-23T10:19:05;6.07;;;4.43;;
13374;SDS011;6756;51.354;15.754;2023-05-23T10:23:15;6.20;;;4.47;;
13374;SDS011;6756;51.354;15.754;2023-05-23T10:27:16;4.40;;;3.90;;
13374;SDS011;6756;51.354;15.754;2023-05-23T10:31:18;5.37;;;4.87;;
13374;SDS011;6756;51.354;15.754;2023-05-23T10:35:30;5.20;;;4.47;;
13374;SDS011;6756;51.354;15.754;2023-05-23T10:44:11;5.60;;;5.10;;
13374;SDS011;6756;51.354;15.754;2023-05-23T10:48:33;6.87;;;4.87;;
13374;SDS011;6756;51.354;15.754;2023-05-23T10:52:38;6.57;;;4.83;;
13374;SDS011;6756;51.354;15.754;2023-05-23T10:56:41;6.13;;;4.90;;
13374;SDS011;6756;51.354;15.754;2023-05-23T11:00:49;8.90;;;5.70;;
13374;SDS011;6756;51.354;15.754;2023-05-23T11:09:21;9.03;;;5.43;;
13374;SDS011;6756;51.354;15.754;2023-05-23T11:13:23;8.40;;;5.47;;
13374;SDS011;6756;51.354;15.754;2023-05-23T11:17:30;10.07;;;5.77;;
13374;SDS011;6756;51.354;15.754;2023-05-23T11:21:32;13.07;;;6.13;;
13374;SDS011;6756;51.354;15.754;2023-05-23T11:29:42;7.60;;;6.67;;
13374;SDS011;6756;51.354;15.754;2023-05-23T11:33:43;8.53;;;6.87;;
13374;SDS011;6756;51.354;15.754;2023-05-23T11:37:44;8.37;;;6.90;;
13374;SDS011;6756;51.354;15.754;2023-05-23T11:41:59;7.97;;;7.17;;
13374;SDS011;6756;51.354;15.754;2023-05-23T11:46:07;8.00;;;7.20;;
13374;SDS011;6756;51.354;15.754;2023-05-23T11:50:08;8.67;;;7.77;;
13374;SDS011;6756;51.354;15.754;2023-05-23T11:54:09;9.77;;;8.73;;
13374;SDS011;6756;51.354;15.754;2023-05-23T11:58:10;9.93;;;8.63;;
13374;SDS011;6756;51.354;15.754;2023-05-23T12:02:11;10.07;;;9.03;;
13374;SDS011;6756;51.354;15.754;2023-05-23T12:06:22;10.73;;;9.33;;
13374;SDS011;6756;51.354;15.754;2023-05-23T12:10:25;10.97;;;9.93;;
13374;SDS011;6756;51.354;15.754;2023-05-23T12:14:27;12.70;;;10.23;;
13374;SDS011;6756;51.354;15.754;2023-05-23T12:18:30;10.50;;;9.60;;
13374;SDS011;6756;51.354;15.754;2023-05-23T12:22:31;10.53;;;9.53;;
13374;SDS011;6756;51.354;15.754;2023-05-23T12:26:32;9.30;;;8.40;;
13374;SDS011;6756;51.354;15.754;2023-05-23T12:30:45;9.77;;;8.90;;
13374;SDS011;6756;51.354;15.754;2023-05-23T12:34:46;10.43;;;8.83;;
13374;SDS011;6756;51.354;15.754;2023-05-23T12:38:49;8.27;;;7.40;;
13374;SDS011;6756;51.354;15.754;2023-05-23T12:42:50;8.95;;;8.10;;
13374;SDS011;6756;51.354;15.754;2023-05-23T12:46:59;10.25;;;8.00;;
13374;SDS011;6756;51.354;15.754;2023-05-23T12:51:02;9.25;;;8.35;;
13374;SDS011;6756;51.354;15.754;2023-05-23T12:55:03;11.50;;;8.30;;
13374;SDS011;6756;51.354;15.754;2023-05-23T12:59:05;8.68;;;7.88;;
13374;SDS011;6756;51.354;15.754;2023-05-23T13:03:09;8.75;;;7.95;;
13374;SDS011;6756;51.354;15.754;2023-05-23T13:07:10;8.82;;;7.65;;
13374;SDS011;6756;51.354;15.754;2023-05-23T13:11:11;8.45;;;7.47;;
13374;SDS011;6756;51.354;15.754;2023-05-23T13:15:13;7.22;;;6.57;;
13374;SDS011;6756;51.354;15.754;2023-05-23T13:19:13;10.75;;;6.80;;
13374;SDS011;6756;51.354;15.754;2023-05-23T13:23:18;11.75;;;8.60;;
13374;SDS011;6756;51.354;15.754;2023-05-23T13:27:19;8.93;;;8.03;;
13374;SDS011;6756;51.354;15.754;2023-05-23T13:31:21;8.30;;;6.93;;
13374;SDS011;6756;51.354;15.754;2023-05-23T13:35:22;7.63;;;6.53;;
13374;SDS011;6756;51.354;15.754;2023-05-23T13:39:23;7.10;;;6.40;;
13374;SDS011;6756;51.354;15.754;2023-05-23T13:43:24;8.37;;;6.97;;
13374;SDS011;6756;51.354;15.754;2023-05-23T13:47:28;7.30;;;6.27;;
13374;SDS011;6756;51.354;15.754;2023-05-23T13:51:30;7.20;;;6.50;;
13374;SDS011;6756;51.354;15.754;2023-05-23T13:55:31;7.70;;;6.80;;
13374;SDS011;6756;51.354;15.754;2023-05-23T13:59:32;10.23;;;7.57;;
13374;SDS011;6756;51.354;15.754;2023-05-23T14:03:34;8.30;;;7.17;;
13374;SDS011;6756;51.354;15.754;2023-05-23T14:07:35;10.20;;;8.27;;
13374;SDS011;6756;51.354;15.754;2023-05-23T14:11:37;10.33;;;7.27;;
13374;SDS011;6756;51.354;15.754;2023-05-23T14:15:38;9.43;;;8.13;;
13374;SDS011;6756;51.354;15.754;2023-05-23T14:19:41;9.30;;;8.03;;
13374;SDS011;6756;51.354;15.754;2023-05-23T14:23:44;9.87;;;8.87;;
13374;SDS011;6756;51.354;15.754;2023-05-23T14:27:48;9.80;;;8.80;;
13374;SDS011;6756;51.354;15.754;2023-05-23T14:31:50;9.83;;;8.83;;
13374;SDS011;6756;51.354;15.754;2023-05-23T14:35:51;10.27;;;9.23;;
13374;SDS011;6756;51.354;15.754;2023-05-23T14:39:52;10.30;;;9.27;;
13374;SDS011;6756;51.354;15.754;2023-05-23T14:43:53;14.27;;;9.03;;
13374;SDS011;6756;51.354;15.754;2023-05-23T14:47:54;10.40;;;8.93;;
13374;SDS011;6756;51.354;15.754;2023-05-23T14:51:55;9.90;;;9.00;;
13374;SDS011;6756;51.354;15.754;2023-05-23T15:00:53;28.43;;;17.60;;
13374;SDS011;6756;51.354;15.754;2023-05-23T15:04:55;13.67;;;11.33;;
13374;SDS011;6756;51.354;15.754;2023-05-23T15:08:56;12.53;;;10.83;;
13374;SDS011;6756;51.354;15.754;2023-05-23T15:12:57;16.97;;;12.47;;
13374;SDS011;6756;51.354;15.754;2023-05-23T15:16:58;12.10;;;10.37;;
13374;SDS011;6756;51.354;15.754;2023-05-23T15:21:06;10.40;;;9.40;;
13374;SDS011;6756;51.354;15.754;2023-05-23T15:25:08;10.83;;;9.73;;
13374;SDS011;6756;51.354;15.754;2023-05-23T15:29:09;15.53;;;8.90;;
13374;SDS011;6756;51.354;15.754;2023-05-23T15:33:11;19.57;;;13.50;;
13374;SDS011;6756;51.354;15.754;2023-05-23T15:37:12;9.87;;;8.87;;
13374;SDS011;6756;51.354;15.754;2023-05-23T15:41:13;18.33;;;11.60;;
13374;SDS011;6756;51.354;15.754;2023-05-23T15:45:20;9.40;;;8.10;;
13374;SDS011;6756;51.354;15.754;2023-05-23T15:49:21;10.83;;;9.00;;
13374;SDS011;6756;51.354;15.754;2023-05-23T15:53:22;16.03;;;10.37;;
13374;SDS011;6756;51.354;15.754;2023-05-23T15:57:23;14.60;;;11.33;;
13374;SDS011;6756;51.354;15.754;2023-05-23T16:01:24;14.20;;;11.40;;
13374;SDS011;6756;51.354;15.754;2023-05-23T16:05:25;12.03;;;10.83;;
13374;SDS011;6756;51.354;15.754;2023-05-23T16:09:26;11.83;;;10.63;;
13374;SDS011;6756;51.354;15.754;2023-05-23T16:13:27;15.30;;;12.23;;
13374;SDS011;6756;51.354;15.754;2023-05-23T16:17:28;12.37;;;10.50;;
13374;SDS011;6756;51.354;15.754;2023-05-23T16:21:29;13.07;;;9.47;;
13374;SDS011;6756;51.354;15.754;2023-05-23T16:25:31;11.60;;;8.13;;
13374;SDS011;6756;51.354;15.754;2023-05-23T16:29:32;17.13;;;8.20;;
13374;SDS011;6756;51.354;15.754;2023-05-23T16:33:33;12.73;;;7.60;;
13374;SDS011;6756;51.354;15.754;2023-05-23T16:37:35;9.67;;;7.57;;
13374;SDS011;6756;51.354;15.754;2023-05-23T16:41:37;11.60;;;8.73;;
13374;SDS011;6756;51.354;15.754;2023-05-23T16:45:40;13.37;;;8.87;;
13374;SDS011;6756;51.354;15.754;2023-05-23T16:49:41;19.07;;;11.30;;
13374;SDS011;6756;51.354;15.754;2023-05-23T16:53:42;13.33;;;8.37;;
13374;SDS011;6756;51.354;15.754;2023-05-23T16:57:45;10.33;;;8.87;;
13374;SDS011;6756;51.354;15.754;2023-05-23T17:01:46;9.40;;;6.90;;
13374;SDS011;6756;51.354;15.754;2023-05-23T17:05:47;8.73;;;6.07;;
13374;SDS011;6756;51.354;15.754;2023-05-23T17:09:49;12.63;;;6.63;;
13374;SDS011;6756;51.354;15.754;2023-05-23T17:13:50;7.73;;;6.70;;
13374;SDS011;6756;51.354;15.754;2023-05-23T17:17:51;7.43;;;6.77;;
13374;SDS011;6756;51.354;15.754;2023-05-23T17:21:52;8.70;;;6.53;;
13374;SDS011;6756;51.354;15.754;2023-05-23T17:25:53;7.37;;;6.10;;
13374;SDS011;6756;51.354;15.754;2023-05-23T17:29:55;10.07;;;7.47;;
13374;SDS011;6756;51.354;15.754;2023-05-23T17:33:57;7.63;;;6.13;;
13374;SDS011;6756;51.354;15.754;2023-05-23T17:37:58;7.50;;;6.80;;
13374;SDS011;6756;51.354;15.754;2023-05-23T17:42:01;10.30;;;6.60;;
13374;SDS011;6756;51.354;15.754;2023-05-23T17:46:03;10.07;;;6.77;;
13374;SDS011;6756;51.354;15.754;2023-05-23T17:50:04;6.70;;;6.10;;
13374;SDS011;6756;51.354;15.754;2023-05-23T17:54:08;7.23;;;5.73;;
13374;SDS011;6756;51.354;15.754;2023-05-23T17:58:10;6.90;;;5.97;;
13374;SDS011;6756;51.354;15.754;2023-05-23T18:02:11;6.10;;;5.50;;
13374;SDS011;6756;51.354;15.754;2023-05-23T18:06:12;7.50;;;6.37;;
13374;SDS011;6756;51.354;15.754;2023-05-23T18:10:16;6.63;;;5.97;;
13374;SDS011;6756;51.354;15.754;2023-05-23T18:14:18;7.33;;;6.13;;
13374;SDS011;6756;51.354;15.754;2023-05-23T18:18:20;6.57;;;5.97;;
13374;SDS011;6756;51.354;15.754;2023-05-23T18:22:24;6.27;;;5.77;;
13374;SDS011;6756;51.354;15.754;2023-05-23T18:26:26;6.43;;;5.03;;
13374;SDS011;6756;51.354;15.754;2023-05-23T18:30:27;7.47;;;5.77;;
13374;SDS011;6756;51.354;15.754;2023-05-23T18:34:29;6.07;;;5.40;;
13374;SDS011;6756;51.354;15.754;2023-05-23T18:38:30;6.67;;;5.97;;
13374;SDS011;6756;51.354;15.754;2023-05-23T18:42:32;8.37;;;6.03;;
13374;SDS011;6756;51.354;15.754;2023-05-23T18:46:39;7.17;;;6.40;;
13374;SDS011;6756;51.354;15.754;2023-05-23T18:50:40;6.50;;;5.80;;
13374;SDS011;6756;51.354;15.754;2023-05-23T18:54:41;6.23;;;5.63;;
13374;SDS011;6756;51.354;15.754;2023-05-23T18:58:42;6.27;;;4.93;;
13374;SDS011;6756;51.354;15.754;2023-05-23T19:02:47;5.67;;;5.07;;
13374;SDS011;6756;51.354;15.754;2023-05-23T19:06:49;6.23;;;5.37;;
13374;SDS011;6756;51.354;15.754;2023-05-23T19:10:51;5.67;;;5.07;;
13374;SDS011;6756;51.354;15.754;2023-05-23T19:14:52;7.23;;;5.30;;
13374;SDS011;6756;51.354;15.754;2023-05-23T19:18:58;5.87;;;5.27;;
13374;SDS011;6756;51.354;15.754;2023-05-23T19:23:00;7.60;;;5.60;;
13374;SDS011;6756;51.354;15.754;2023-05-23T19:27:01;7.60;;;6.60;;
13374;SDS011;6756;51.354;15.754;2023-05-23T19:31:03;8.43;;;6.53;;
13374;SDS011;6756;51.354;15.754;2023-05-23T19:35:06;7.33;;;6.63;;
13374;SDS011;6756;51.354;15.754;2023-05-23T19:39:09;7.40;;;6.70;;
13374;SDS011;6756;51.354;15.754;2023-05-23T19:43:11;7.00;;;6.30;;
13374;SDS011;6756;51.354;15.754;2023-05-23T19:47:12;7.53;;;6.83;;
13374;SDS011;6756;51.354;15.754;2023-05-23T19:51:13;7.23;;;6.53;;
13374;SDS011;6756;51.354;15.754;2023-05-23T19:55:15;7.63;;;6.93;;
13374;SDS011;6756;51.354;15.754;2023-05-23T19:59:16;8.13;;;6.27;;
13374;SDS011;6756;51.354;15.754;2023-05-23T20:03:17;7.67;;;6.87;;
13374;SDS011;6756;51.354;15.754;2023-05-23T20:07:19;9.67;;;7.97;;
13374;SDS011;6756;51.354;15.754;2023-05-23T20:11:20;8.03;;;7.20;;
13374;SDS011;6756;51.354;15.754;2023-05-23T20:15:21;8.93;;;8.00;;
13374;SDS011;6756;51.354;15.754;2023-05-23T20:19:25;8.40;;;7.40;;
13374;SDS011;6756;51.354;15.754;2023-05-23T20:23:26;8.03;;;7.27;;
13374;SDS011;6756;51.354;15.754;2023-05-23T20:27:28;11.07;;;7.87;;
13374;SDS011;6756;51.354;15.754;2023-05-23T20:31:29;8.70;;;7.90;;
13374;SDS011;6756;51.354;15.754;2023-05-23T20:35:30;8.77;;;7.97;;
13374;SDS011;6756;51.354;15.754;2023-05-23T20:39:32;7.87;;;7.07;;
13374;SDS011;6756;51.354;15.754;2023-05-23T20:43:33;6.67;;;5.60;;
13374;SDS011;6756;51.354;15.754;2023-05-23T20:47:36;6.10;;;5.50;;
13374;SDS011;6756;51.354;15.754;2023-05-23T20:51:40;5.13;;;4.70;;
13374;SDS011;6756;51.354;15.754;2023-05-23T20:55:42;6.23;;;3.77;;
13374;SDS011;6756;51.354;15.754;2023-05-23T20:59:43;5.10;;;4.67;;
13374;SDS011;6756;51.354;15.754;2023-05-23T21:03:45;8.97;;;6.53;;
13374;SDS011;6756;51.354;15.754;2023-05-23T21:07:46;6.30;;;5.70;;
13374;SDS011;6756;51.354;15.754;2023-05-23T21:11:47;6.00;;;5.50;;
13374;SDS011;6756;51.354;15.754;2023-05-23T21:15:48;7.40;;;6.70;;
13374;SDS011;6756;51.354;15.754;2023-05-23T21:19:50;6.97;;;6.27;;
13374;SDS011;6756;51.354;15.754;2023-05-23T21:23:51;6.00;;;5.50;;
13374;SDS011;6756;51.354;15.754;2023-05-23T21:27:52;6.10;;;5.43;;
13374;SDS011;6756;51.354;15.754;2023-05-23T21:31:53;6.30;;;5.00;;
13374;SDS011;6756;51.354;15.754;2023-05-23T21:35:54;5.53;;;5.03;;
13374;SDS011;6756;51.354;15.754;2023-05-23T21:39:55;4.77;;;4.37;;
13374;SDS011;6756;51.354;15.754;2023-05-23T21:43:56;4.70;;;4.30;;
13374;SDS011;6756;51.354;15.754;2023-05-23T21:47:57;5.20;;;4.70;;
13374;SDS011;6756;51.354;15.754;2023-05-23T21:51:58;4.47;;;4.07;;
13374;SDS011;6756;51.354;15.754;2023-05-23T21:56:03;3.80;;;3.50;;
13374;SDS011;6756;51.354;15.754;2023-05-23T22:00:04;3.60;;;3.10;;
13374;SDS011;6756;51.354;15.754;2023-05-23T22:04:11;3.27;;;2.97;;
13374;SDS011;6756;51.354;15.754;2023-05-23T22:08:12;2.57;;;2.20;;
13374;SDS011;6756;51.354;15.754;2023-05-23T22:12:12;4.77;;;2.50;;
13374;SDS011;6756;51.354;15.754;2023-05-23T22:16:13;2.87;;;2.57;;
13374;SDS011;6756;51.354;15.754;2023-05-23T22:20:14;1.50;;;1.27;;
13374;SDS011;6756;51.354;15.754;2023-05-23T22:24:15;1.50;;;1.00;;
13374;SDS011;6756;51.354;15.754;2023-05-23T22:28:16;1.20;;;1.10;;
13374;SDS011;6756;51.354;15.754;2023-05-23T22:32:17;1.10;;;1.00;;
13374;SDS011;6756;51.354;15.754;2023-05-23T22:36:19;1.27;;;1.17;;
13374;SDS011;6756;51.354;15.754;2023-05-23T22:40:21;1.40;;;1.30;;
13374;SDS011;6756;51.354;15.754;2023-05-23T22:44:23;1.47;;;1.37;;
13374;SDS011;6756;51.354;15.754;2023-05-23T22:48:25;1.97;;;1.53;;
13374;SDS011;6756;51.354;15.754;2023-05-23T22:52:26;2.97;;;1.30;;
13374;SDS011;6756;51.354;15.754;2023-05-23T22:56:30;1.20;;;1.10;;
13374;SDS011;6756;51.354;15.754;2023-05-23T23:00:31;2.13;;;1.20;;
13374;SDS011;6756;51.354;15.754;2023-05-23T23:04:32;1.77;;;1.60;;
13374;SDS011;6756;51.354;15.754;2023-05-23T23:08:37;1.93;;;1.50;;
13374;SDS011;6756;51.354;15.754;2023-05-23T23:12:38;3.73;;;1.60;;
13374;SDS011;6756;51.354;15.754;2023-05-23T23:16:39;5.57;;;2.03;;
13374;SDS011;6756;51.354;15.754;2023-05-23T23:20:42;3.67;;;2.30;;
13374;SDS011;6756;51.354;15.754;2023-05-23T23:24:43;6.40;;;2.40;;
13374;SDS011;6756;51.354;15.754;2023-05-23T23:28:45;5.63;;;2.87;;
13374;SDS011;6756;51.354;15.754;2023-05-23T23:32:51;8.13;;;3.87;;
13374;SDS011;6756;51.354;15.754;2023-05-23T23:36:55;7.47;;;5.33;;
13374;SDS011;6756;51.354;15.754;2023-05-23T23:41:16;12.47;;;5.60;;
13374;SDS011;6756;51.354;15.754;2023-05-23T23:45:17;9.37;;;5.67;;
13374;SDS011;6756;51.354;15.754;2023-05-23T23:49:18;16.53;;;6.60;;
13374;SDS011;6756;51.354;15.754;2023-05-23T23:53:19;12.17;;;6.07;;
13374;SDS011;6756;51.354;15.754;2023-05-23T23:57:20;10.50;;;5.70;;
